sensor_id;sensor_type;location;lat;lon;timestamp;pressure;altitude;pressure_sealevel;temperature;humidity
15568;BME280;7885;42.596;23.044;2023-03-24T00:01:57;93021.09;;;7.47;78.98
15568;BME280;7885;42.596;23.044;2023-03-24T00:04:24;93021.13;;;7.50;78.37
15568;BME280;7885;42.596;23.044;2023-03-24T00:06:52;93028.13;;;7.51;78.05
15568;BME280;7885;42.596;23.044;2023-03-24T00:09:19;93026.63;;;7.57;77.30
15568;BME280;7885;42.596;23.044;2023-03-24T00:11:47;93024.34;;;7.63;77.07
15568;BME280;7885;42.596;23.044;2023-03-24T00:14:14;93023.56;;;7.62;77.26
15568;BME280;7885;42.596;23.044;2023-03-24T00:16:42;93019.75;;;7.67;77.03
15568;BME280;7885;42.596;23.044;2023-03-24T00:19:10;93015.09;;;7.68;77.14
15568;BME280;7885;42.596;23.044;2023-03-24T00:21:38;92999.94;;;7.59;76.60
15568;BME280;7885;42.596;23.044;2023-03-24T00:24:07;93019.78;;;7.71;76.42
15568;BME280;7885;42.596;23.044;2023-03-24T00:26:35;93012.06;;;7.76;76.60
15568;BME280;7885;42.596;23.044;2023-03-24T00:29:05;93013.63;;;7.77;76.64
15568;BME280;7885;42.596;23.044;2023-03-24T00:31:32;93014.44;;;7.81;76.40
15568;BME280;7885;42.596;23.044;2023-03-24T00:33:59;93005.94;;;7.83;76.36
15568;BME280;7885;42.596;23.044;2023-03-24T00:36:27;93004.41;;;7.82;76.04
15568;BME280;7885;42.596;23.044;2023-03-24T00:38:55;93009.81;;;7.82;75.48
15568;BME280;7885;42.596;23.044;2023-03-24T00:41:22;93011.34;;;7.83;75.18
15568;BME280;7885;42.596;23.044;2023-03-24T00:43:53;93002.84;;;7.81;75.71
15568;BME280;7885;42.596;23.044;2023-03-24T00:46:22;92995.88;;;7.83;75.88
15568;BME280;7885;42.596;23.044;2023-03-24T00:48:56;92993.53;;;7.78;74.84
15568;BME280;7885;42.596;23.044;2023-03-24T00:51:27;92999.59;;;7.65;72.92
15568;BME280;7885;42.596;23.044;2023-03-24T00:53:54;92996.41;;;7.55;75.81
15568;BME280;7885;42.596;23.044;2023-03-24T00:56:25;93007.16;;;7.48;76.97
15568;BME280;7885;42.596;23.044;2023-03-24T00:58:52;93004.13;;;7.53;76.24
15568;BME280;7885;42.596;23.044;2023-03-24T01:01:24;93004.00;;;7.39;74.26
15568;BME280;7885;42.596;23.044;2023-03-24T01:03:53;93003.09;;;7.28;72.85
15568;BME280;7885;42.596;23.044;2023-03-24T01:06:22;93008.47;;;7.25;73.55
15568;BME280;7885;42.596;23.044;2023-03-24T01:08:50;92990.44;;;6.99;75.33
15568;BME280;7885;42.596;23.044;2023-03-24T01:11:19;93016.00;;;7.05;77.71
15568;BME280;7885;42.596;23.044;2023-03-24T01:13:49;92983.72;;;6.86;78.64
15568;BME280;7885;42.596;23.044;2023-03-24T01:16:16;93005.22;;;7.08;77.49
15568;BME280;7885;42.596;23.044;2023-03-24T01:18:45;93000.84;;;6.97;76.32
15568;BME280;7885;42.596;23.044;2023-03-24T01:21:11;92998.94;;;7.01;76.47
15568;BME280;7885;42.596;23.044;2023-03-24T01:23:39;92991.06;;;6.85;74.69
15568;BME280;7885;42.596;23.044;2023-03-24T01:26:08;92990.09;;;6.71;76.44
15568;BME280;7885;42.596;23.044;2023-03-24T01:28:36;92985.00;;;6.66;78.16
15568;BME280;7885;42.596;23.044;2023-03-24T01:31:06;92984.28;;;6.69;78.02
15568;BME280;7885;42.596;23.044;2023-03-24T01:33:34;92989.28;;;6.67;77.77
15568;BME280;7885;42.596;23.044;2023-03-24T01:36:03;92991.88;;;6.59;76.48
15568;BME280;7885;42.596;23.044;2023-03-24T01:38:30;92985.28;;;6.57;77.55
15568;BME280;7885;42.596;23.044;2023-03-24T01:40:57;92986.19;;;6.38;78.74
15568;BME280;7885;42.596;23.044;2023-03-24T01:43:26;93002.84;;;6.40;77.54
15568;BME280;7885;42.596;23.044;2023-03-24T01:46:04;92996.47;;;6.26;79.94
15568;BME280;7885;42.596;23.044;2023-03-24T01:48:35;92992.56;;;6.23;81.04
15568;BME280;7885;42.596;23.044;2023-03-24T01:51:07;92997.16;;;6.19;79.62
15568;BME280;7885;42.596;23.044;2023-03-24T01:53:37;92998.22;;;6.15;80.88
15568;BME280;7885;42.596;23.044;2023-03-24T01:59:29;93001.03;;;6.22;83.35
15568;BME280;7885;42.596;23.044;2023-03-24T02:01:57;92999.22;;;6.29;83.32
15568;BME280;7885;42.596;23.044;2023-03-24T02:04:29;93001.97;;;6.33;83.64
15568;BME280;7885;42.596;23.044;2023-03-24T02:06:58;92999.22;;;6.29;82.06
15568;BME280;7885;42.596;23.044;2023-03-24T02:09:27;93004.13;;;6.20;79.26
15568;BME280;7885;42.596;23.044;2023-03-24T02:11:54;93006.50;;;6.25;82.75
15568;BME280;7885;42.596;23.044;2023-03-24T02:14:22;93000.44;;;6.35;84.17
15568;BME280;7885;42.596;23.044;2023-03-24T02:17:11;93008.16;;;6.33;79.11
15568;BME280;7885;42.596;23.044;2023-03-24T02:20:10;92994.50;;;6.23;79.55
15568;BME280;7885;42.596;23.044;2023-03-24T02:23:01;92981.50;;;6.05;78.72
15568;BME280;7885;42.596;23.044;2023-03-24T02:28:48;93001.59;;;6.08;80.16
15568;BME280;7885;42.596;23.044;2023-03-24T02:34:31;93002.97;;;5.95;77.47
15568;BME280;7885;42.596;23.044;2023-03-24T02:37:27;93010.47;;;5.82;78.58
15568;BME280;7885;42.596;23.044;2023-03-24T02:40:09;93002.66;;;5.77;79.92
15568;BME280;7885;42.596;23.044;2023-03-24T02:45:55;93004.06;;;5.68;81.96
15568;BME280;7885;42.596;23.044;2023-03-24T02:48:32;92998.53;;;5.60;82.35
15568;BME280;7885;42.596;23.044;2023-03-24T02:51:06;92996.28;;;5.66;83.01
15568;BME280;7885;42.596;23.044;2023-03-24T02:53:43;92975.25;;;5.75;83.80
15568;BME280;7885;42.596;23.044;2023-03-24T02:56:19;92970.63;;;5.76;84.54
15568;BME280;7885;42.596;23.044;2023-03-24T02:58:51;92982.97;;;5.77;85.68
15568;BME280;7885;42.596;23.044;2023-03-24T03:01:24;92974.81;;;5.96;85.90
15568;BME280;7885;42.596;23.044;2023-03-24T03:03:59;92970.72;;;6.05;85.50
15568;BME280;7885;42.596;23.044;2023-03-24T03:06:29;92970.13;;;6.19;85.04
15568;BME280;7885;42.596;23.044;2023-03-24T03:09:01;92973.66;;;6.23;83.99
15568;BME280;7885;42.596;23.044;2023-03-24T03:11:32;92971.41;;;6.29;83.80
15568;BME280;7885;42.596;23.044;2023-03-24T03:14:02;92963.28;;;6.29;83.32
15568;BME280;7885;42.596;23.044;2023-03-24T03:16:33;92971.78;;;6.27;82.11
15568;BME280;7885;42.596;23.044;2023-03-24T03:19:05;92975.25;;;6.28;81.40
15568;BME280;7885;42.596;23.044;2023-03-24T03:21:38;92960.06;;;6.16;81.28
15568;BME280;7885;42.596;23.044;2023-03-24T03:24:09;92980.94;;;6.19;81.44
15568;BME280;7885;42.596;23.044;2023-03-24T03:26:38;92974.78;;;6.22;82.61
15568;BME280;7885;42.596;23.044;2023-03-24T03:29:10;92970.06;;;6.16;83.30
15568;BME280;7885;42.596;23.044;2023-03-24T03:31:43;92960.00;;;6.13;83.04
15568;BME280;7885;42.596;23.044;2023-03-24T03:34:19;92951.41;;;6.07;83.26
15568;BME280;7885;42.596;23.044;2023-03-24T03:36:54;92980.28;;;6.29;83.09
15568;BME280;7885;42.596;23.044;2023-03-24T03:39:27;92968.00;;;6.35;82.34
15568;BME280;7885;42.596;23.044;2023-03-24T03:41:57;92954.75;;;6.23;81.87
15568;BME280;7885;42.596;23.044;2023-03-24T03:44:24;92969.53;;;6.33;81.86
15568;BME280;7885;42.596;23.044;2023-03-24T03:46:51;92969.88;;;6.31;82.72
15568;BME280;7885;42.596;23.044;2023-03-24T03:49:18;92973.84;;;6.37;82.87
15568;BME280;7885;42.596;23.044;2023-03-24T03:51:45;92977.34;;;6.41;82.39
15568;BME280;7885;42.596;23.044;2023-03-24T03:54:15;92973.22;;;6.21;81.40
15568;BME280;7885;42.596;23.044;2023-03-24T03:56:42;92934.19;;;5.89;82.68
15568;BME280;7885;42.596;23.044;2023-03-24T03:59:25;92968.34;;;6.04;83.33
15568;BME280;7885;42.596;23.044;2023-03-24T04:01:52;92977.53;;;5.96;84.06
15568;BME280;7885;42.596;23.044;2023-03-24T04:04:33;92969.75;;;5.94;83.43
15568;BME280;7885;42.596;23.044;2023-03-24T04:07:11;92972.91;;;6.00;82.66
15568;BME280;7885;42.596;23.044;2023-03-24T04:09:49;92977.47;;;5.92;81.17
15568;BME280;7885;42.596;23.044;2023-03-24T04:12:40;92970.25;;;5.77;81.30
15568;BME280;7885;42.596;23.044;2023-03-24T04:15:29;92984.53;;;5.78;82.70
15568;BME280;7885;42.596;23.044;2023-03-24T04:18:09;92975.38;;;5.59;82.40
15568;BME280;7885;42.596;23.044;2023-03-24T04:20:42;92964.47;;;5.52;83.79
15568;BME280;7885;42.596;23.044;2023-03-24T04:23:23;92990.13;;;5.66;84.81
15568;BME280;7885;42.596;23.044;2023-03-24T04:26:00;92988.56;;;5.65;84.91
15568;BME280;7885;42.596;23.044;2023-03-24T04:31:52;92988.22;;;5.43;85.29
15568;BME280;7885;42.596;23.044;2023-03-24T04:34:26;92984.00;;;5.46;84.84
15568;BME280;7885;42.596;23.044;2023-03-24T04:37:00;92987.91;;;5.48;87.24
15568;BME280;7885;42.596;23.044;2023-03-24T04:39:33;92978.56;;;5.42;88.40
15568;BME280;7885;42.596;23.044;2023-03-24T04:42:05;92978.69;;;5.49;87.00
15568;BME280;7885;42.596;23.044;2023-03-24T04:44:34;92983.66;;;5.47;87.62
15568;BME280;7885;42.596;23.044;2023-03-24T05:00:29;93016.06;;;5.47;82.62
15568;BME280;7885;42.596;23.044;2023-03-24T05:02:57;93017.00;;;5.58;83.21
15568;BME280;7885;42.596;23.044;2023-03-24T05:05:24;93014.72;;;5.60;84.23
15568;BME280;7885;42.596;23.044;2023-03-24T05:07:51;93013.66;;;5.65;84.57
15568;BME280;7885;42.596;23.044;2023-03-24T05:10:18;93018.06;;;5.77;85.46
15568;BME280;7885;42.596;23.044;2023-03-24T05:12:45;93024.72;;;5.83;85.50
15568;BME280;7885;42.596;23.044;2023-03-24T05:15:12;93014.00;;;5.86;85.47
15568;BME280;7885;42.596;23.044;2023-03-24T05:44:34;93034.38;;;6.89;82.72
15568;BME280;7885;42.596;23.044;2023-03-24T05:47:01;93032.56;;;7.00;83.00
15568;BME280;7885;42.596;23.044;2023-03-24T05:49:28;93031.53;;;7.11;82.83
15568;BME280;7885;42.596;23.044;2023-03-24T05:51:56;93033.28;;;7.27;82.33
15568;BME280;7885;42.596;23.044;2023-03-24T05:54:22;93032.22;;;7.38;81.72
15568;BME280;7885;42.596;23.044;2023-03-24T05:56:49;93038.88;;;7.44;81.75
15568;BME280;7885;42.596;23.044;2023-03-24T05:59:16;93045.94;;;7.56;81.41
15568;BME280;7885;42.596;23.044;2023-03-24T06:01:44;93007.56;;;7.47;81.03
15568;BME280;7885;42.596;23.044;2023-03-24T06:04:12;93035.28;;;7.74;80.59
15568;BME280;7885;42.596;23.044;2023-03-24T06:06:39;93041.97;;;7.87;80.68
15568;BME280;7885;42.596;23.044;2023-03-24T06:09:10;93030.84;;;7.99;80.21
15568;BME280;7885;42.596;23.044;2023-03-24T06:11:38;93033.69;;;8.13;80.43
15568;BME280;7885;42.596;23.044;2023-03-24T06:14:05;93024.03;;;8.19;80.26
15568;BME280;7885;42.596;23.044;2023-03-24T06:16:33;93033.44;;;8.32;79.94
15568;BME280;7885;42.596;23.044;2023-03-24T06:19:05;93034.31;;;8.43;80.13
15568;BME280;7885;42.596;23.044;2023-03-24T06:21:32;93029.69;;;8.47;79.65
15568;BME280;7885;42.596;23.044;2023-03-24T06:23:59;93037.91;;;8.61;78.64
15568;BME280;7885;42.596;23.044;2023-03-24T06:26:27;93040.66;;;8.69;78.11
15568;BME280;7885;42.596;23.044;2023-03-24T06:28:55;93018.50;;;8.56;78.63
15568;BME280;7885;42.596;23.044;2023-03-24T06:31:22;93043.81;;;8.78;78.89
15568;BME280;7885;42.596;23.044;2023-03-24T06:33:49;93021.31;;;8.74;78.26
15568;BME280;7885;42.596;23.044;2023-03-24T06:36:18;93035.78;;;8.99;78.00
15568;BME280;7885;42.596;23.044;2023-03-24T06:38:45;93040.88;;;9.18;78.28
15568;BME280;7885;42.596;23.044;2023-03-24T06:47:55;93039.88;;;9.79;76.07
15568;BME280;7885;42.596;23.044;2023-03-24T06:50:22;93050.41;;;9.88;75.64
15568;BME280;7885;42.596;23.044;2023-03-24T06:52:52;93045.38;;;10.11;75.33
15568;BME280;7885;42.596;23.044;2023-03-24T06:55:19;93040.38;;;10.24;74.92
15568;BME280;7885;42.596;23.044;2023-03-24T06:57:47;93039.59;;;10.34;74.38
15568;BME280;7885;42.596;23.044;2023-03-24T07:00:14;93051.22;;;10.48;73.61
15568;BME280;7885;42.596;23.044;2023-03-24T07:06:02;93047.31;;;10.74;72.07
15568;BME280;7885;42.596;23.044;2023-03-24T07:08:30;93060.47;;;10.93;71.39
15568;BME280;7885;42.596;23.044;2023-03-24T07:10:58;93055.78;;;11.08;70.00
15568;BME280;7885;42.596;23.044;2023-03-24T07:13:25;93061.19;;;11.15;70.05
15568;BME280;7885;42.596;23.044;2023-03-24T07:15:51;93057.28;;;11.23;69.83
15568;BME280;7885;42.596;23.044;2023-03-24T07:18:18;93063.81;;;11.47;69.34
15568;BME280;7885;42.596;23.044;2023-03-24T07:27:30;93052.53;;;12.18;67.24
15568;BME280;7885;42.596;23.044;2023-03-24T07:29:58;93062.69;;;12.65;67.92
15568;BME280;7885;42.596;23.044;2023-03-24T07:32:25;93064.63;;;13.09;66.57
15568;BME280;7885;42.596;23.044;2023-03-24T07:34:53;93074.47;;;13.71;64.49
15568;BME280;7885;42.596;23.044;2023-03-24T07:37:19;93068.91;;;14.61;61.55
15568;BME280;7885;42.596;23.044;2023-03-24T07:39:47;93070.97;;;16.38;57.54
15568;BME280;7885;42.596;23.044;2023-03-24T07:42:13;93069.75;;;19.11;48.53
15568;BME280;7885;42.596;23.044;2023-03-24T07:44:42;93062.00;;;21.78;41.33
15568;BME280;7885;42.596;23.044;2023-03-24T07:47:09;93058.72;;;23.50;35.63
15568;BME280;7885;42.596;23.044;2023-03-24T07:49:36;93057.94;;;25.14;31.09
15568;BME280;7885;42.596;23.044;2023-03-24T07:52:02;93060.59;;;26.65;29.52
15568;BME280;7885;42.596;23.044;2023-03-24T07:54:30;93061.47;;;27.82;27.80
15568;BME280;7885;42.596;23.044;2023-03-24T07:56:57;93061.34;;;29.33;25.11
15568;BME280;7885;42.596;23.044;2023-03-24T07:59:25;93059.47;;;30.90;22.51
15568;BME280;7885;42.596;23.044;2023-03-24T08:01:53;93030.94;;;31.94;21.77
15568;BME280;7885;42.596;23.044;2023-03-24T08:04:20;93043.34;;;33.22;20.69
15568;BME280;7885;42.596;23.044;2023-03-24T08:06:47;93046.44;;;34.34;18.95
15568;BME280;7885;42.596;23.044;2023-03-24T08:09:14;93022.16;;;34.65;17.96
15568;BME280;7885;42.596;23.044;2023-03-24T08:11:40;93040.06;;;34.81;17.78
15568;BME280;7885;42.596;23.044;2023-03-24T08:14:07;93041.53;;;34.95;17.58
15568;BME280;7885;42.596;23.044;2023-03-24T08:16:34;93039.59;;;35.44;18.04
15568;BME280;7885;42.596;23.044;2023-03-24T08:19:04;93034.72;;;36.15;17.63
15568;BME280;7885;42.596;23.044;2023-03-24T08:21:32;93047.88;;;37.12;16.69
15568;BME280;7885;42.596;23.044;2023-03-24T08:23:58;93044.75;;;37.61;15.80
15568;BME280;7885;42.596;23.044;2023-03-24T08:26:25;93039.25;;;38.01;15.43
15568;BME280;7885;42.596;23.044;2023-03-24T08:28:52;93040.94;;;38.27;15.40
15568;BME280;7885;42.596;23.044;2023-03-24T08:31:19;93040.19;;;38.11;14.98
15568;BME280;7885;42.596;23.044;2023-03-24T08:33:46;93037.56;;;37.98;15.05
15568;BME280;7885;42.596;23.044;2023-03-24T08:36:14;93021.28;;;37.68;15.26
15568;BME280;7885;42.596;23.044;2023-03-24T08:38:41;93022.97;;;38.09;15.18
15568;BME280;7885;42.596;23.044;2023-03-24T08:41:07;93021.91;;;38.60;14.66
15568;BME280;7885;42.596;23.044;2023-03-24T08:46:56;93017.97;;;39.60;13.77
15568;BME280;7885;42.596;23.044;2023-03-24T08:49:23;93022.50;;;39.63;14.03
15568;BME280;7885;42.596;23.044;2023-03-24T08:51:51;92995.28;;;39.94;13.93
15568;BME280;7885;42.596;23.044;2023-03-24T08:54:18;93007.13;;;40.67;13.71
15568;BME280;7885;42.596;23.044;2023-03-24T08:56:47;93011.47;;;41.29;13.38
15568;BME280;7885;42.596;23.044;2023-03-24T08:59:15;92996.47;;;40.67;12.94
15568;BME280;7885;42.596;23.044;2023-03-24T09:01:42;92986.84;;;41.33;13.00
15568;BME280;7885;42.596;23.044;2023-03-24T09:04:09;93010.50;;;41.70;12.71
15568;BME280;7885;42.596;23.044;2023-03-24T09:06:36;92997.03;;;41.90;12.25
15568;BME280;7885;42.596;23.044;2023-03-24T09:09:04;92998.13;;;42.04;12.28
15568;BME280;7885;42.596;23.044;2023-03-24T09:11:31;92997.97;;;41.66;12.35
15568;BME280;7885;42.596;23.044;2023-03-24T09:13:58;92991.81;;;41.33;12.05
15568;BME280;7885;42.596;23.044;2023-03-24T09:16:25;92994.50;;;41.58;11.76
15568;BME280;7885;42.596;23.044;2023-03-24T09:18:52;92987.28;;;41.57;12.00
15568;BME280;7885;42.596;23.044;2023-03-24T09:21:19;92987.31;;;41.76;11.88
15568;BME280;7885;42.596;23.044;2023-03-24T09:23:46;92990.22;;;42.31;11.40
15568;BME280;7885;42.596;23.044;2023-03-24T09:26:14;92987.56;;;42.82;11.83
15568;BME280;7885;42.596;23.044;2023-03-24T09:28:41;92971.56;;;42.69;10.45
15568;BME280;7885;42.596;23.044;2023-03-24T09:31:07;92956.94;;;42.94;9.90
15568;BME280;7885;42.596;23.044;2023-03-24T09:33:34;92951.75;;;43.21;10.81
15568;BME280;7885;42.596;23.044;2023-03-24T09:36:02;92954.03;;;43.22;10.20
15568;BME280;7885;42.596;23.044;2023-03-24T09:38:29;92983.44;;;43.73;9.86
15568;BME280;7885;42.596;23.044;2023-03-24T09:40:59;92947.25;;;43.68;9.63
15568;BME280;7885;42.596;23.044;2023-03-24T09:43:32;92974.09;;;43.82;10.00
15568;BME280;7885;42.596;23.044;2023-03-24T09:46:04;92967.94;;;43.97;9.44
15568;BME280;7885;42.596;23.044;2023-03-24T09:48:34;92965.91;;;43.78;9.39
15568;BME280;7885;42.596;23.044;2023-03-24T09:51:06;92961.25;;;44.04;9.32
15568;BME280;7885;42.596;23.044;2023-03-24T09:53:41;92951.34;;;43.96;8.47
15568;BME280;7885;42.596;23.044;2023-03-24T09:56:12;92955.03;;;44.08;8.95
15568;BME280;7885;42.596;23.044;2023-03-24T10:02:09;92953.63;;;43.57;9.17
15568;BME280;7885;42.596;23.044;2023-03-24T10:04:37;92909.78;;;43.45;9.40
15568;BME280;7885;42.596;23.044;2023-03-24T10:07:08;92949.16;;;43.35;9.78
15568;BME280;7885;42.596;23.044;2023-03-24T10:09:39;92932.22;;;43.58;9.79
15568;BME280;7885;42.596;23.044;2023-03-24T10:12:18;92916.13;;;43.74;9.41
15568;BME280;7885;42.596;23.044;2023-03-24T10:14:55;92926.59;;;43.60;9.54
15568;BME280;7885;42.596;23.044;2023-03-24T10:17:28;92925.00;;;43.38;10.09
15568;BME280;7885;42.596;23.044;2023-03-24T10:20:03;92907.34;;;42.91;9.86
15568;BME280;7885;42.596;23.044;2023-03-24T10:22:36;92921.09;;;42.25;9.60
15568;BME280;7885;42.596;23.044;2023-03-24T10:25:11;92914.41;;;41.12;9.63
15568;BME280;7885;42.596;23.044;2023-03-24T10:27:44;92889.59;;;39.58;10.82
15568;BME280;7885;42.596;23.044;2023-03-24T10:30:15;92913.56;;;39.55;11.23
15568;BME280;7885;42.596;23.044;2023-03-24T10:32:45;92897.91;;;39.14;11.36
15568;BME280;7885;42.596;23.044;2023-03-24T10:35:15;92903.19;;;39.17;11.82
15568;BME280;7885;42.596;23.044;2023-03-24T10:37:44;92904.00;;;40.02;11.63
15568;BME280;7885;42.596;23.044;2023-03-24T10:40:13;92903.56;;;40.40;10.93
15568;BME280;7885;42.596;23.044;2023-03-24T10:42:43;92905.09;;;39.89;11.30
15568;BME280;7885;42.596;23.044;2023-03-24T10:45:13;92897.28;;;39.48;11.17
15568;BME280;7885;42.596;23.044;2023-03-24T10:47:41;92902.03;;;39.20;10.97
15568;BME280;7885;42.596;23.044;2023-03-24T10:50:10;92900.78;;;39.38;10.60
15568;BME280;7885;42.596;23.044;2023-03-24T10:52:38;92894.81;;;39.69;11.07
15568;BME280;7885;42.596;23.044;2023-03-24T10:55:06;92886.38;;;40.30;10.76
15568;BME280;7885;42.596;23.044;2023-03-24T10:57:41;92893.97;;;40.45;10.24
15568;BME280;7885;42.596;23.044;2023-03-24T11:00:16;92898.75;;;41.03;10.39
15568;BME280;7885;42.596;23.044;2023-03-24T11:02:55;92893.63;;;40.75;10.27
15568;BME280;7885;42.596;23.044;2023-03-24T11:05:27;92897.56;;;41.43;9.55
15568;BME280;7885;42.596;23.044;2023-03-24T11:07:59;92883.81;;;40.68;9.81
15568;BME280;7885;42.596;23.044;2023-03-24T11:10:37;92855.03;;;41.10;10.03
15568;BME280;7885;42.596;23.044;2023-03-24T11:13:13;92856.88;;;41.15;9.85
15568;BME280;7885;42.596;23.044;2023-03-24T11:15:52;92877.44;;;40.87;10.28
15568;BME280;7885;42.596;23.044;2023-03-24T11:18:20;92854.19;;;40.64;10.21
15568;BME280;7885;42.596;23.044;2023-03-24T11:20:52;92864.72;;;40.44;9.60
15568;BME280;7885;42.596;23.044;2023-03-24T11:23:26;92860.47;;;40.01;9.88
15568;BME280;7885;42.596;23.044;2023-03-24T11:26:04;92851.44;;;38.54;9.66
15568;BME280;7885;42.596;23.044;2023-03-24T11:28:36;92845.84;;;37.84;10.50
15568;BME280;7885;42.596;23.044;2023-03-24T11:31:06;92834.19;;;36.59;11.67
15568;BME280;7885;42.596;23.044;2023-03-24T11:33:41;92834.63;;;35.76;12.68
15568;BME280;7885;42.596;23.044;2023-03-24T11:36:37;92834.16;;;34.79;13.25
15568;BME280;7885;42.596;23.044;2023-03-24T11:39:10;92822.97;;;33.98;13.86
15568;BME280;7885;42.596;23.044;2023-03-24T11:41:43;92809.56;;;32.41;14.24
15568;BME280;7885;42.596;23.044;2023-03-24T11:44:18;92808.59;;;32.07;14.54
15568;BME280;7885;42.596;23.044;2023-03-24T11:46:49;92814.81;;;32.00;15.45
15568;BME280;7885;42.596;23.044;2023-03-24T11:49:20;92808.84;;;32.09;15.74
15568;BME280;7885;42.596;23.044;2023-03-24T11:51:52;92804.19;;;32.43;15.29
15568;BME280;7885;42.596;23.044;2023-03-24T11:54:22;92793.09;;;32.32;14.36
15568;BME280;7885;42.596;23.044;2023-03-24T11:56:51;92796.22;;;31.78;15.23
15568;BME280;7885;42.596;23.044;2023-03-24T11:59:27;92798.72;;;30.23;15.81
15568;BME280;7885;42.596;23.044;2023-03-24T12:02:03;92766.06;;;29.49;16.54
15568;BME280;7885;42.596;23.044;2023-03-24T12:04:41;92778.69;;;29.26;16.88
15568;BME280;7885;42.596;23.044;2023-03-24T12:10:42;92761.78;;;29.84;17.30
15568;BME280;7885;42.596;23.044;2023-03-24T12:13:15;92775.78;;;30.49;16.82
15568;BME280;7885;42.596;23.044;2023-03-24T12:15:54;92788.13;;;30.65;16.53
15568;BME280;7885;42.596;23.044;2023-03-24T12:21:43;92767.03;;;31.44;15.26
15568;BME280;7885;42.596;23.044;2023-03-24T12:24:21;92750.66;;;30.81;15.15
15568;BME280;7885;42.596;23.044;2023-03-24T12:26:56;92760.38;;;30.80;15.41
15568;BME280;7885;42.596;23.044;2023-03-24T12:29:42;92747.84;;;30.81;15.64
15568;BME280;7885;42.596;23.044;2023-03-24T12:32:23;92749.47;;;30.95;16.88
15568;BME280;7885;42.596;23.044;2023-03-24T12:35:20;92754.09;;;31.17;16.44
15568;BME280;7885;42.596;23.044;2023-03-24T12:37:57;92748.84;;;31.26;15.96
15568;BME280;7885;42.596;23.044;2023-03-24T12:41:01;92741.47;;;31.42;15.68
15568;BME280;7885;42.596;23.044;2023-03-24T12:43:36;92734.47;;;31.48;15.57
15568;BME280;7885;42.596;23.044;2023-03-24T12:46:15;92735.59;;;31.21;15.37
15568;BME280;7885;42.596;23.044;2023-03-24T12:49:00;92731.28;;;31.20;15.34
15568;BME280;7885;42.596;23.044;2023-03-24T12:51:40;92712.13;;;31.19;15.79
15568;BME280;7885;42.596;23.044;2023-03-24T13:00:59;92700.56;;;30.36;15.75
15568;BME280;7885;42.596;23.044;2023-03-24T13:03:32;92713.81;;;30.12;16.49
15568;BME280;7885;42.596;23.044;2023-03-24T13:06:11;92689.03;;;29.86;17.02
15568;BME280;7885;42.596;23.044;2023-03-24T13:08:41;92686.03;;;29.78;16.86
15568;BME280;7885;42.596;23.044;2023-03-24T13:11:14;92686.28;;;29.50;16.76
15568;BME280;7885;42.596;23.044;2023-03-24T13:13:44;92690.50;;;29.63;17.53
15568;BME280;7885;42.596;23.044;2023-03-24T13:16:18;92691.88;;;29.80;16.85
15568;BME280;7885;42.596;23.044;2023-03-24T13:18:46;92693.16;;;29.79;16.77
15568;BME280;7885;42.596;23.044;2023-03-24T13:21:17;92697.84;;;29.71;17.28
15568;BME280;7885;42.596;23.044;2023-03-24T13:23:48;92696.63;;;29.26;16.85
15568;BME280;7885;42.596;23.044;2023-03-24T13:26:32;92689.44;;;28.84;17.41
15568;BME280;7885;42.596;23.044;2023-03-24T13:29:21;92689.25;;;29.17;17.90
15568;BME280;7885;42.596;23.044;2023-03-24T13:31:56;92694.19;;;29.46;17.09
15568;BME280;7885;42.596;23.044;2023-03-24T13:34:27;92681.84;;;29.61;17.55
15568;BME280;7885;42.596;23.044;2023-03-24T13:36:59;92682.91;;;29.17;18.10
15568;BME280;7885;42.596;23.044;2023-03-24T13:39:28;92679.56;;;28.66;18.20
15568;BME280;7885;42.596;23.044;2023-03-24T13:41:57;92658.78;;;28.45;18.69
15568;BME280;7885;42.596;23.044;2023-03-24T13:44:28;92665.25;;;28.86;19.06
15568;BME280;7885;42.596;23.044;2023-03-24T13:47:05;92666.03;;;29.22;18.75
15568;BME280;7885;42.596;23.044;2023-03-24T13:49:34;92667.03;;;28.84;18.85
15568;BME280;7885;42.596;23.044;2023-03-24T13:52:03;92635.97;;;28.30;18.86
15568;BME280;7885;42.596;23.044;2023-03-24T13:54:31;92662.19;;;28.21;19.41
15568;BME280;7885;42.596;23.044;2023-03-24T13:57:03;92656.88;;;27.95;19.65
15568;BME280;7885;42.596;23.044;2023-03-24T13:59:38;92656.94;;;27.79;19.75
15568;BME280;7885;42.596;23.044;2023-03-24T14:05:29;92652.09;;;27.29;20.46
15568;BME280;7885;42.596;23.044;2023-03-24T14:08:13;92644.44;;;27.07;20.52
15568;BME280;7885;42.596;23.044;2023-03-24T14:10:43;92637.81;;;26.83;20.83
15568;BME280;7885;42.596;23.044;2023-03-24T14:13:21;92652.50;;;26.78;21.02
15568;BME280;7885;42.596;23.044;2023-03-24T14:15:49;92617.44;;;26.66;20.53
15568;BME280;7885;42.596;23.044;2023-03-24T14:18:38;92645.97;;;26.92;20.80
15568;BME280;7885;42.596;23.044;2023-03-24T14:21:07;92642.41;;;27.08;20.91
15568;BME280;7885;42.596;23.044;2023-03-24T14:23:36;92639.38;;;27.17;19.84
15568;BME280;7885;42.596;23.044;2023-03-24T14:26:07;92636.84;;;27.02;20.06
15568;BME280;7885;42.596;23.044;2023-03-24T14:28:37;92632.91;;;26.67;19.63
15568;BME280;7885;42.596;23.044;2023-03-24T14:31:13;92629.56;;;26.40;19.88
15568;BME280;7885;42.596;23.044;2023-03-24T14:34:00;92631.19;;;26.16;20.56
15568;BME280;7885;42.596;23.044;2023-03-24T14:36:31;92638.72;;;25.98;21.30
15568;BME280;7885;42.596;23.044;2023-03-24T14:39:08;92642.19;;;25.82;22.00
15568;BME280;7885;42.596;23.044;2023-03-24T14:41:39;92637.56;;;25.68;22.45
15568;BME280;7885;42.596;23.044;2023-03-24T14:44:06;92640.03;;;25.60;23.53
15568;BME280;7885;42.596;23.044;2023-03-24T14:46:39;92639.16;;;25.49;23.16
15568;BME280;7885;42.596;23.044;2023-03-24T14:49:20;92642.94;;;25.46;23.88
15568;BME280;7885;42.596;23.044;2023-03-24T14:51:57;92636.44;;;25.23;23.87
15568;BME280;7885;42.596;23.044;2023-03-24T14:54:30;92635.91;;;25.19;23.25
15568;BME280;7885;42.596;23.044;2023-03-24T14:56:59;92632.31;;;25.13;23.57
15568;BME280;7885;42.596;23.044;2023-03-24T14:59:36;92622.78;;;24.94;23.90
15568;BME280;7885;42.596;23.044;2023-03-24T15:02:15;92635.25;;;25.04;23.78
15568;BME280;7885;42.596;23.044;2023-03-24T15:05:16;92632.38;;;24.93;23.89